Search for airport 
image banner adimage banner adimage banner ad
image banner ad

3PA3 - Dr2

Located in Fogelsville, United States

ICAO - 3PA3, IATA -

Data provided by Airmate  

General information

Coordinates: N40°36'9" W75°38'35"
Elevation is 485 feet MSL.
 
View others Airports in Pennsylvania

Operational data

Special qualification required
Current time UTC:
Current local time:
Weather at : KXLL - Allentown Queen City Muni ( 14 km )
METAR: KXLL 061215Z AUTO 34012KT 10SM SCT040 11/03 A3002 RMK AO2
View NOTAMs / SUP AIP / TFR affecting this airport [VIEW]
Communications frequencies: [VIEW]

Runways:

Airport contact information

Address: Fogelsville United States

Satellite view of 3PA3